Time;durP1;ratioP1;P1;durP2;ratioP2;P2;SDS_P1;SDS_P2;PMS_P1;PMS_P2;Temp;Humidity;BMP_temperature;BMP_pressure;BME280_temperature;BME280_humidity;BME280_pressure;Samples;Min_cycle;Max_cycle;Signal;HPM_P1;HPM_P2
2021/11/01 00:00:18;;;;;;;71.78;44.10;;;8.60;99.90;;;;;;4974233;28;20404;-77
2021/11/01 00:02:47;;;;;;;72.95;42.83;;;8.50;99.90;;;;;;4974050;28;20153;-79
2021/11/01 00:05:16;;;;;;;65.03;42.45;;;8.60;99.90;;;;;;4956848;28;20043;-77
2021/11/01 00:07:43;;;;;;;66.18;42.42;;;8.50;99.90;;;;;;4972414;28;20066;-77
2021/11/01 00:10:12;;;;;;;67.80;42.67;;;8.40;99.90;;;;;;4974150;28;20043;-76
2021/11/01 00:12:39;;;;;;;63.47;41.65;;;8.20;99.90;;;;;;4972569;28;20407;-77
2021/11/01 00:15:08;;;;;;;63.78;39.28;;;8.10;99.90;;;;;;4956599;28;20047;-77
2021/11/01 00:17:35;;;;;;;70.07;41.80;;;8.30;99.90;;;;;;4956999;28;20049;-77
2021/11/01 00:20:05;;;;;;;61.45;40.20;;;8.10;99.90;;;;;;4972397;28;20047;-80
2021/11/01 00:22:34;;;;;;;66.72;40.03;;;7.90;99.90;;;;;;4956783;28;20050;-75
2021/11/01 00:25:04;;;;;;;65.82;40.47;;;8.10;99.90;;;;;;4940592;28;20057;-82
2021/11/01 00:27:31;;;;;;;68.40;42.50;;;8.20;99.90;;;;;;4973690;28;20039;-79
2021/11/01 00:29:59;;;;;;;64.80;39.92;;;8.20;99.90;;;;;;4973724;28;20057;-78
2021/11/01 00:32:26;;;;;;;62.97;40.50;;;8.20;99.90;;;;;;4956296;28;20086;-82
2021/11/01 00:34:54;;;;;;;58.58;38.00;;;8.30;99.90;;;;;;4956486;28;20047;-83
2021/11/01 00:37:21;;;;;;;62.58;38.28;;;8.40;99.90;;;;;;4956109;28;20226;-82
2021/11/01 00:39:49;;;;;;;59.97;35.45;;;8.40;99.90;;;;;;4973163;28;20129;-80
2021/11/01 00:42:16;;;;;;;55.28;34.75;;;8.20;99.90;;;;;;4973585;28;20039;-79
2021/11/01 00:44:43;;;;;;;53.50;35.28;;;8.20;99.90;;;;;;4972955;28;20054;-78
2021/11/01 00:47:13;;;;;;;53.33;34.47;;;8.30;99.90;;;;;;4973766;28;20043;-78
2021/11/01 00:49:40;;;;;;;54.05;34.53;;;8.30;99.90;;;;;;4956058;28;20411;-76
2021/11/01 00:52:08;;;;;;;56.20;35.40;;;8.20;99.90;;;;;;4974002;28;20065;-77
2021/11/01 00:54:36;;;;;;;59.92;33.85;;;8.40;99.90;;;;;;4973496;28;20050;-79
2021/11/01 00:57:04;;;;;;;53.83;34.35;;;8.30;99.90;;;;;;4974094;28;20039;-77
2021/11/01 00:59:31;;;;;;;52.10;33.45;;;8.30;99.90;;;;;;4973068;28;20047;-76
2021/11/01 01:01:59;;;;;;;52.67;32.30;;;8.20;99.90;;;;;;4972976;28;20049;-79
2021/11/01 01:04:26;;;;;;;57.90;33.67;;;8.20;99.90;;;;;;4973310;28;20130;-81
2021/11/01 01:06:53;;;;;;;48.97;32.90;;;8.10;99.90;;;;;;4971981;28;20061;-78
2021/11/01 01:09:21;;;;;;;49.65;31.85;;;8.10;99.90;;;;;;4972815;28;20121;-77
2021/11/01 01:11:48;;;;;;;41.47;29.50;;;8.00;99.90;;;;;;4956106;28;20130;-80
2021/11/01 01:14:18;;;;;;;45.45;29.77;;;8.00;99.90;;;;;;4973236;28;20043;-79
2021/11/01 01:16:45;;;;;;;45.88;29.67;;;8.20;99.90;;;;;;4956463;28;20042;-78
2021/11/01 01:19:18;;;;;;;49.47;30.88;;;8.20;99.90;;;;;;4972118;28;20074;-79
2021/11/01 01:24:31;;;;;;;44.15;31.13;;;8.00;99.90;;;;;;4973639;28;20400;-81
2021/11/01 01:26:59;;;;;;;46.78;30.50;;;7.90;99.90;;;;;;4973239;28;20094;-78
2021/11/01 01:29:26;;;;;;;48.63;31.25;;;7.80;99.90;;;;;;4972770;28;20481;-81
2021/11/01 01:31:53;;;;;;;48.95;31.00;;;7.90;99.90;;;;;;4971943;28;20054;-77
2021/11/01 01:34:21;;;;;;;47.58;31.20;;;8.00;99.90;;;;;;4955536;28;20042;-80
2021/11/01 01:36:48;;;;;;;48.80;31.83;;;8.00;99.90;;;;;;4972595;28;20038;-78
2021/11/01 01:39:16;;;;;;;53.60;32.78;;;7.90;99.90;;;;;;4972751;28;20079;-78
2021/11/01 01:41:47;;;;;;;58.55;32.33;;;7.80;99.90;;;;;;4971304;28;20070;-79
2021/11/01 01:44:15;;;;;;;50.28;32.20;;;7.80;99.90;;;;;;4972830;28;20042;-79
2021/11/01 01:46:43;;;;;;;48.88;31.55;;;7.90;99.90;;;;;;4972031;28;20459;-78
2021/11/01 01:49:10;;;;;;;49.28;30.65;;;7.90;99.90;;;;;;4973108;28;20125;-78
2021/11/01 01:51:38;;;;;;;47.95;31.52;;;8.00;99.90;;;;;;4971688;28;20392;-77
2021/11/01 01:54:05;;;;;;;56.55;33.20;;;7.70;99.90;;;;;;4973045;28;20414;-77
2021/11/01 01:56:33;;;;;;;53.05;33.20;;;7.70;99.90;;;;;;4972851;28;20046;-76
2021/11/01 01:59:05;;;;;;;55.17;33.72;;;7.80;99.90;;;;;;4955515;28;20105;-78
2021/11/01 02:01:33;;;;;;;51.13;32.13;;;7.70;99.90;;;;;;4955785;28;20050;-80
2021/11/01 02:04:01;;;;;;;51.63;31.98;;;7.80;99.90;;;;;;4972072;28;20420;-79
2021/11/01 02:06:50;;;;;;;53.30;32.00;;;7.70;99.90;;;;;;4955991;28;20121;-79
2021/11/01 02:09:23;;;;;;;53.30;31.30;;;7.80;99.90;;;;;;4971583;28;20047;-79
2021/11/01 02:11:56;;;;;;;49.80;31.80;;;7.70;99.90;;;;;;4972389;28;20065;-80
2021/11/01 02:14:39;;;;;;;50.25;31.52;;;7.50;99.90;;;;;;4973167;28;20073;-80
2021/11/01 02:17:08;;;;;;;49.40;33.20;;;7.40;99.90;;;;;;4955990;28;20093;-79
2021/11/01 02:19:48;;;;;;;46.67;32.45;;;7.40;99.90;;;;;;4971317;28;20121;-77
2021/11/01 02:23:00;;;;;;;53.47;31.55;;;7.30;99.90;;;;;;4972799;28;20117;-80
2021/11/01 02:25:39;;;;;;;46.63;31.73;;;7.30;99.90;;;;;;4960392;28;20054;-79
2021/11/01 02:28:09;;;;;;;49.80;32.33;;;7.20;99.90;;;;;;4955259;28;20046;-79
2021/11/01 02:30:39;;;;;;;52.67;33.53;;;7.40;99.90;;;;;;4972273;28;20055;-81
2021/11/01 02:33:08;;;;;;;47.40;32.47;;;7.40;99.90;;;;;;4972456;28;20050;-79
2021/11/01 02:35:36;;;;;;;50.40;32.13;;;7.40;99.90;;;;;;4972474;28;20035;-77
2021/11/01 02:38:05;;;;;;;56.55;33.42;;;7.40;99.90;;;;;;4955251;28;20047;-81
2021/11/01 02:40:34;;;;;;;52.97;32.08;;;7.40;99.90;;;;;;4955017;28;20043;-79
2021/11/01 02:43:01;;;;;;;51.75;31.38;;;7.40;99.90;;;;;;4956261;28;20050;-80
2021/11/01 02:45:28;;;;;;;45.80;28.98;;;7.10;99.90;;;;;;4974418;28;20043;-79
2021/11/01 02:47:56;;;;;;;48.42;30.10;;;7.30;99.90;;;;;;4975827;28;20042;-81
2021/11/01 02:50:23;;;;;;;47.08;30.27;;;7.00;99.90;;;;;;4975985;28;20053;-78
2021/11/01 02:52:50;;;;;;;48.63;31.08;;;6.80;99.90;;;;;;4975476;28;20125;-80
2021/11/01 02:55:20;;;;;;;49.33;31.33;;;6.80;99.90;;;;;;4942488;28;20130;-80
2021/11/01 02:57:48;;;;;;;45.30;30.27;;;7.00;99.90;;;;;;4975489;28;20039;-78
2021/11/01 03:00:20;;;;;;;46.90;30.38;;;7.30;99.90;;;;;;4975278;28;20053;-77
2021/11/01 03:02:48;;;;;;;46.75;29.60;;;7.20;99.90;;;;;;4975395;28;20499;-78
2021/11/01 03:05:18;;;;;;;51.90;31.02;;;7.10;99.90;;;;;;4975548;28;20085;-78
2021/11/01 03:07:48;;;;;;;46.50;30.10;;;6.80;99.90;;;;;;4975374;28;20078;-77
2021/11/01 03:10:17;;;;;;;48.83;29.58;;;7.00;99.90;;;;;;4975450;28;20042;-77
2021/11/01 03:12:47;;;;;;;47.78;29.67;;;7.10;99.90;;;;;;4958105;28;20051;-81
2021/11/01 03:15:20;;;;;;;47.80;29.33;;;6.80;99.90;;;;;;4973833;28;20038;-81
2021/11/01 03:18:01;;;;;;;47.50;29.05;;;7.00;99.90;;;;;;4974986;28;20047;-81
2021/11/01 03:20:32;;;;;;;44.33;26.77;;;7.00;99.90;;;;;;4975579;28;20505;-79
2021/11/01 03:23:09;;;;;;;35.17;23.98;;;7.10;99.90;;;;;;4974911;28;20488;-76
2021/11/01 03:25:45;;;;;;;36.75;24.60;;;7.30;99.90;;;;;;4974622;28;20121;-81
2021/11/01 03:28:13;;;;;;;33.90;24.45;;;7.30;99.90;;;;;;4974804;28;20039;-79
2021/11/01 03:30:42;;;;;;;41.10;25.15;;;7.20;99.90;;;;;;4942343;28;20146;-76
2021/11/01 03:33:10;;;;;;;40.15;24.60;;;7.20;99.90;;;;;;4975105;28;20549;-79
2021/11/01 03:35:39;;;;;;;39.88;24.70;;;7.30;99.90;;;;;;4958322;28;20041;-80
2021/11/01 03:38:07;;;;;;;35.65;24.88;;;7.20;99.90;;;;;;4975290;28;20477;-82
2021/11/01 03:40:36;;;;;;;40.15;25.38;;;7.20;99.90;;;;;;4958414;28;20403;-78
2021/11/01 03:43:05;;;;;;;35.25;24.35;;;7.20;99.90;;;;;;4974900;28;20038;-79
2021/11/01 03:45:37;;;;;;;35.72;24.67;;;7.40;99.90;;;;;;4975853;28;20458;-80
2021/11/01 03:48:07;;;;;;;35.78;23.98;;;7.20;99.90;;;;;;4975345;28;20149;-78
2021/11/01 03:50:42;;;;;;;40.17;26.37;;;7.00;99.90;;;;;;4975793;28;20043;-80
2021/11/01 03:53:11;;;;;;;43.85;24.88;;;7.10;99.90;;;;;;4957787;28;20035;-77
2021/11/01 03:55:38;;;;;;;38.63;24.83;;;7.10;99.90;;;;;;4941365;28;20046;-76
2021/11/01 03:58:06;;;;;;;40.97;25.05;;;7.20;99.90;;;;;;4974434;28;20132;-77
2021/11/01 04:00:36;;;;;;;42.05;26.05;;;7.00;99.90;;;;;;4974561;28;20126;-79
2021/11/01 04:03:05;;;;;;;39.45;25.85;;;7.10;99.90;;;;;;4974171;28;20430;-77
2021/11/01 04:05:33;;;;;;;38.63;24.65;;;7.10;99.90;;;;;;4974676;28;20101;-80
2021/11/01 04:08:00;;;;;;;37.65;24.02;;;7.10;99.90;;;;;;4973943;28;20413;-78
2021/11/01 04:10:28;;;;;;;41.20;26.25;;;7.10;99.90;;;;;;4957487;28;20157;-79
2021/11/01 04:12:55;;;;;;;37.63;26.98;;;7.10;99.90;;;;;;4973925;28;20121;-80
2021/11/01 04:15:26;;;;;;;45.75;29.00;;;7.00;99.90;;;;;;4974184;28;20656;-77
2021/11/01 04:23:01;;;;;;;48.15;29.13;;;6.80;99.90;;;;;;4973746;28;20053;-77
2021/11/01 04:25:30;;;;;;;41.00;29.00;;;6.90;99.90;;;;;;4973921;28;20122;-79
2021/11/01 04:27:59;;;;;;;47.47;30.48;;;6.90;99.90;;;;;;4973632;28;20587;-76
2021/11/01 04:30:43;;;;;;;53.20;32.20;;;6.70;99.90;;;;;;4974435;28;20077;-78
2021/11/01 04:33:14;;;;;;;52.75;32.53;;;6.60;99.90;;;;;;4974488;28;20049;-80
2021/11/01 04:35:43;;;;;;;54.92;33.50;;;6.60;99.90;;;;;;4974041;28;20392;-77
2021/11/01 04:54:52;;;;;;;46.67;28.85;;;6.40;99.90;;;;;;4934059;29;20065;-81
2021/11/01 04:57:20;;;;;;;47.47;30.73;;;6.50;99.90;;;;;;4953750;29;20460;-80
2021/11/01 04:59:48;;;;;;;48.90;29.98;;;6.50;99.90;;;;;;4953846;29;20081;-79
2021/11/01 05:02:17;;;;;;;48.47;29.65;;;6.30;99.90;;;;;;4953719;29;20444;-80
2021/11/01 05:04:54;;;;;;;44.25;28.95;;;6.30;99.90;;;;;;4954530;29;20097;-83
2021/11/01 05:07:23;;;;;;;43.88;27.23;;;6.20;99.90;;;;;;4937149;29;20047;-80
2021/11/01 05:10:14;;;;;;;34.50;24.42;;;6.30;99.90;;;;;;4954537;29;20039;-82
2021/11/01 05:12:42;;;;;;;28.52;22.55;;;6.40;99.90;;;;;;4952067;29;20101;-82
2021/11/01 05:30:33;;;;;;;29.17;19.92;;;6.00;99.90;;;;;;4952897;29;20110;-82
2021/11/01 05:35:41;;;;;;;29.88;20.17;;;6.20;99.90;;;;;;4954328;29;20043;-82
2021/11/01 05:38:09;;;;;;;40.50;25.40;;;6.30;99.90;;;;;;4953798;29;20134;-80
2021/11/01 05:40:37;;;;;;;52.05;30.38;;;6.30;99.90;;;;;;4936992;29;20075;-78
2021/11/01 05:43:05;;;;;;;45.50;25.95;;;6.20;99.90;;;;;;4953688;29;20100;-78
2021/11/01 05:45:32;;;;;;;40.58;26.58;;;6.30;99.90;;;;;;4937494;29;20449;-81
2021/11/01 05:48:02;;;;;;;46.60;29.85;;;6.50;99.90;;;;;;4937259;29;20047;-80
2021/11/01 05:50:34;;;;;;;67.68;41.55;;;6.80;99.90;;;;;;4954002;29;20111;-81
2021/11/01 05:53:08;;;;;;;66.32;38.80;;;7.40;99.90;;;;;;4957064;28;20128;-82
2021/11/01 05:58:57;;;;;;;50.53;29.42;;;7.50;99.90;;;;;;4955665;28;20061;-82
2021/11/01 06:14:26;;;;;;;38.88;23.73;;;6.70;99.90;;;;;;4955391;28;20117;-80
2021/11/01 06:16:53;;;;;;;44.40;24.77;;;6.80;99.90;;;;;;4955707;28;20042;-78
2021/11/01 06:19:20;;;;;;;41.97;23.88;;;7.10;99.90;;;;;;4975832;28;20070;-80
2021/11/01 06:21:48;;;;;;;37.80;23.67;;;7.10;99.90;;;;;;4976545;28;20049;-87
2021/11/01 06:24:46;;;;;;;44.10;23.40;;;7.00;99.90;;;;;;4943635;28;20043;-80
2021/11/01 06:27:13;;;;;;;40.03;23.38;;;6.90;99.90;;;;;;4976884;28;20129;-79
2021/11/01 06:29:53;;;;;;;41.90;24.05;;;6.80;99.90;;;;;;4959828;28;20042;-78
2021/11/01 06:43:59;;;;;;;59.65;32.88;;;7.10;99.90;;;;;;4977343;28;20860;-87
2021/11/01 07:30:55;;;;;;;46.28;27.42;;;7.90;99.90;;;;;;4992534;28;20038;-82
2021/11/01 08:34:04;;;;;;;40.33;26.95;;;11.10;99.90;;;;;;4974159;28;20490;-81
2021/11/01 09:20:46;;;;;;;36.97;23.88;;;15.40;99.90;;;;;;4936664;29;20086;-85
2021/11/01 09:28:50;;;;;;;37.20;24.30;;;16.00;99.90;;;;;;4936079;29;20050;-83
2021/11/01 09:36:54;;;;;;;32.97;22.85;;;16.70;98.70;;;;;;4953931;29;20542;-82
2021/11/01 09:42:08;;;;;;;31.25;22.88;;;16.60;97.50;;;;;;4954217;29;20119;-83
2021/11/01 09:44:36;;;;;;;32.88;22.48;;;16.50;98.20;;;;;;4937664;29;20447;-87
2021/11/01 09:47:04;;;;;;;31.02;21.88;;;16.90;97.90;;;;;;4953557;29;20051;-82
2021/11/01 09:49:34;;;;;;;30.92;21.55;;;17.30;97.00;;;;;;4936897;29;20059;-84
2021/11/01 09:52:07;;;;;;;32.10;22.42;;;17.30;96.40;;;;;;4937175;29;20479;-84
2021/11/01 09:54:37;;;;;;;33.25;21.95;;;16.60;96.80;;;;;;4967446;28;20045;-83
2021/11/01 09:57:20;;;;;;;;;;;16.80;96.30;;;;;;4976875;28;20054;-82
2021/11/01 09:59:48;;;;;;;26.88;19.30;;;17.10;96.10;;;;;;4960555;28;20013;-86
2021/11/01 10:02:21;;;;;;;28.80;20.25;;;17.50;95.80;;;;;;4959937;28;20047;-85
2021/11/01 10:04:53;;;;;;;27.75;18.83;;;17.70;95.60;;;;;;4977669;28;20047;-88
2021/11/01 10:07:23;;;;;;;29.83;19.45;;;17.30;94.50;;;;;;4960204;28;20113;-85
2021/11/01 10:09:52;;;;;;;30.48;20.33;;;17.40;93.60;;;;;;4961124;28;20035;-84
2021/11/01 10:12:19;;;;;;;28.85;19.15;;;17.50;95.50;;;;;;4979460;28;20076;-86
2021/11/01 10:14:58;;;;;;;27.65;18.42;;;17.30;94.10;;;;;;4977221;28;20141;-91
2021/11/01 10:17:35;;;;;;;28.08;18.30;;;17.30;94.30;;;;;;4945505;28;20047;-81
2021/11/01 10:20:10;;;;;;;26.33;16.90;;;17.80;93.70;;;;;;4959410;28;20118;-83
2021/11/01 10:22:40;;;;;;;23.90;16.63;;;17.90;93.10;;;;;;4959084;28;20117;-85
2021/11/01 10:25:15;;;;;;;25.33;17.33;;;18.10;93.20;;;;;;4945840;28;20066;-82
2021/11/01 10:27:46;;;;;;;25.15;17.70;;;18.00;93.60;;;;;;4944112;28;20244;-80
2021/11/01 10:30:20;;;;;;;28.25;18.23;;;17.70;93.60;;;;;;4942833;28;20089;-84
2021/11/01 10:32:50;;;;;;;28.70;18.58;;;17.60;93.70;;;;;;4959562;28;20054;-83
2021/11/01 10:35:31;;;;;;;27.20;17.80;;;17.80;93.90;;;;;;4975985;28;20073;-89
2021/11/01 10:41:01;;;;;;;22.45;15.15;;;18.10;92.80;;;;;;4975302;28;20455;-82
2021/11/01 10:43:44;;;;;;;21.67;15.15;;;18.00;92.90;;;;;;4975723;28;20083;-81
2021/11/01 11:11:59;;;;;;;20.75;15.35;;;19.50;89.90;;;;;;4975357;28;20121;-85
2021/11/01 11:25:33;;;;;;;19.55;13.38;;;20.10;85.20;;;;;;4976391;28;20089;-82
2021/11/01 11:48:07;;;;;;;19.17;13.65;;;20.90;78.60;;;;;;4956702;29;20611;-89
2021/11/01 11:50:35;;;;;;;17.55;12.88;;;20.90;79.00;;;;;;4960761;29;20031;-81
2021/11/01 11:53:11;;;;;;;24.98;15.35;;;21.20;78.40;;;;;;4956683;29;20047;-82
2021/11/01 11:55:40;;;;;;;25.38;16.38;;;21.10;76.30;;;;;;4970159;28;20039;-81
2021/11/01 11:58:11;;;;;;;21.70;15.02;;;20.40;80.20;;;;;;4958697;28;20042;-86
2021/11/01 12:00:39;;;;;;;21.55;14.43;;;20.40;80.30;;;;;;4977778;28;20423;-84
2021/11/01 12:03:12;;;;;;;18.58;12.48;;;20.30;77.20;;;;;;4964432;28;20109;-81
2021/11/01 12:05:49;;;;;;;18.02;12.35;;;20.30;77.20;;;;;;4963934;28;20372;-89
2021/11/01 12:18:53;;;;;;;22.73;12.93;;;20.40;76.40;;;;;;4974403;28;20043;-87
2021/11/01 12:21:22;;;;;;;19.67;13.15;;;20.80;75.40;;;;;;4974267;28;20450;-87
2021/11/01 12:23:54;;;;;;;18.40;12.73;;;22.50;71.00;;;;;;4973449;28;20488;-83
2021/11/01 12:26:25;;;;;;;19.00;12.40;;;26.30;62.80;;;;;;4968321;28;20031;-88
2021/11/01 12:29:01;;;;;;;21.48;12.38;;;27.80;56.80;;;;;;4947122;29;20035;-87
2021/11/01 12:31:29;;;;;;;21.73;12.63;;;28.30;54.60;;;;;;4959726;28;20058;-85
2021/11/01 12:34:02;;;;;;;18.67;11.15;;;29.00;52.40;;;;;;4951773;28;20558;-80
2021/11/01 12:37:00;;;;;;;13.75;10.20;;;28.90;50.00;;;;;;4974979;28;20101;-85
2021/11/01 12:58:56;;;;;;;18.30;11.23;;;29.80;47.90;;;;;;4992218;28;20078;-80
2021/11/01 13:01:25;;;;;;;14.73;11.80;;;30.00;47.60;;;;;;4977301;28;20097;-83
2021/11/01 13:04:34;;;;;;;15.32;11.43;;;27.70;49.10;;;;;;4974966;28;20050;-81
2021/11/01 13:09:45;;;;;;;15.38;11.52;;;25.00;55.00;;;;;;4992412;28;20101;-79
2021/11/01 13:12:35;;;;;;;14.55;11.00;;;24.00;56.30;;;;;;4992363;28;20093;-84
2021/11/01 13:20:30;;;;;;;15.30;10.23;;;25.00;56.00;;;;;;4991235;28;20050;-80
2021/11/01 13:23:00;;;;;;;18.52;12.27;;;25.10;53.90;;;;;;4991485;28;20565;-81
2021/11/01 13:25:54;;;;;;;16.83;11.35;;;24.40;53.90;;;;;;4974684;28;20056;-82
2021/11/01 13:37:17;;;;;;;17.40;11.00;;;24.00;55.70;;;;;;4991537;28;20058;-78
2021/11/01 13:39:45;;;;;;;15.80;11.40;;;23.10;56.00;;;;;;4991388;28;20053;-79
2021/11/01 13:42:17;;;;;;;17.38;10.80;;;23.70;56.90;;;;;;4974050;28;20046;-78
2021/11/01 13:44:45;;;;;;;16.73;12.23;;;24.10;56.40;;;;;;4991706;28;20045;-78
2021/11/01 13:47:17;;;;;;;17.02;10.82;;;24.10;57.20;;;;;;4990356;28;20490;-82
2021/11/01 13:49:48;;;;;;;16.55;11.18;;;24.10;57.30;;;;;;4991836;28;20054;-80
2021/11/01 13:57:53;;;;;;;16.17;10.93;;;23.30;58.00;;;;;;4954891;28;20177;-78
2021/11/01 15:28:02;;;;;;;24.17;13.30;;;16.60;79.00;;;;;;4991553;28;19925;-86
2021/11/01 16:20:08;;;;;;;52.38;32.42;;;14.80;99.90;;;;;;4966450;28;20372;-78
2021/11/01 16:22:39;;;;;;;53.85;29.02;;;14.80;99.90;;;;;;4952886;28;20039;-79
2021/11/01 16:25:07;;;;;;;58.28;35.13;;;14.80;99.90;;;;;;4979754;28;20035;-78
2021/11/01 16:27:42;;;;;;;67.07;38.95;;;15.00;99.90;;;;;;4962288;28;20142;-81
2021/11/01 16:30:18;;;;;;;51.03;34.08;;;15.00;99.90;;;;;;4929655;28;20048;-82
2021/11/01 16:32:52;;;;;;;43.33;26.58;;;14.80;99.90;;;;;;4943160;28;20047;-84
2021/11/01 16:35:35;;;;;;;35.58;24.25;;;14.60;99.90;;;;;;4971179;28;20449;-88
2021/11/01 16:38:09;;;;;;;39.65;24.45;;;14.50;99.90;;;;;;4988187;28;20041;-87
2021/11/01 16:40:56;;;;;;;43.50;23.15;;;14.60;99.90;;;;;;4989338;28;20054;-85
2021/11/01 16:43:31;;;;;;;47.63;25.20;;;14.30;99.90;;;;;;4987541;28;20035;-86
2021/11/01 16:45:58;;;;;;;52.42;27.52;;;13.90;99.90;;;;;;4949505;28;20094;-85
2021/11/01 16:48:27;;;;;;;53.22;30.38;;;13.50;99.90;;;;;;4954051;28;20130;-75
2021/11/01 16:50:56;;;;;;;51.58;31.48;;;13.30;99.90;;;;;;4967540;28;20042;-75
2021/11/01 16:53:26;;;;;;;48.20;30.48;;;13.80;99.90;;;;;;4972214;28;20038;-76
2021/11/01 16:56:01;;;;;;;50.55;31.35;;;14.00;99.90;;;;;;4952328;29;20082;-84
2021/11/01 16:58:42;;;;;;;53.45;30.90;;;13.90;99.90;;;;;;4953463;29;20627;-85
2021/11/01 17:01:13;;;;;;;53.60;30.63;;;14.10;99.90;;;;;;4952664;28;20138;-88
2021/11/01 17:23:36;;;;;;;53.35;29.83;;;14.00;99.90;;;;;;4956414;29;20039;-85
2021/11/01 17:26:10;;;;;;;48.75;27.40;;;13.70;99.90;;;;;;4958046;29;20070;-91
2021/11/01 17:28:51;;;;;;;38.15;25.00;;;13.40;99.90;;;;;;4952637;29;20435;-80
2021/11/01 18:37:22;;;;;;;74.68;42.35;;;12.10;99.90;;;;;;4944969;28;20074;-94
2021/11/01 18:39:33;;;;;;;72.45;39.38;;;12.30;99.90;;;;;;4974541;28;20089;-88
2021/11/01 18:53:06;;;;;;;67.65;37.15;;;12.10;99.90;;;;;;4978052;28;20038;-85
2021/11/01 18:55:36;;;;;;;58.00;37.50;;;12.20;99.90;;;;;;4966796;28;20128;-86
2021/11/01 18:58:05;;;;;;;61.47;34.83;;;12.20;99.90;;;;;;4944074;29;20047;-79
2021/11/01 19:00:42;;;;;;;72.93;36.27;;;12.20;99.90;;;;;;4948099;28;20426;-83
2021/11/01 19:03:14;;;;;;;66.55;36.65;;;12.10;99.90;;;;;;4941804;29;20055;-82
2021/11/01 20:16:33;;;;;;;62.63;39.35;;;10.90;99.90;;;;;;4941858;29;20064;-80
2021/11/01 21:26:23;;;;;;;61.05;35.67;;;10.10;99.90;;;;;;4968401;28;20058;-82
2021/11/01 21:28:52;;;;;;;60.65;35.13;;;10.20;99.90;;;;;;4944373;29;20447;-80
2021/11/01 21:31:21;;;;;;;53.78;33.80;;;10.30;99.90;;;;;;4953143;29;20035;-76
2021/11/01 21:33:55;;;;;;;64.10;36.60;;;10.70;99.90;;;;;;4952555;29;20418;-77
2021/11/01 21:36:25;;;;;;;55.40;33.97;;;11.00;99.90;;;;;;4949279;29;20035;-82
2021/11/01 21:38:57;;;;;;;58.25;32.47;;;10.40;99.90;;;;;;4964007;28;20595;-78
2021/11/01 21:41:28;;;;;;;61.00;35.90;;;10.10;99.90;;;;;;4932447;28;20036;-79
2021/11/01 21:43:56;;;;;;;55.53;35.70;;;10.20;99.90;;;;;;4961181;28;20748;-81
2021/11/01 21:46:23;;;;;;;75.65;44.35;;;10.40;99.90;;;;;;4977105;28;20031;-79
2021/11/01 21:48:51;;;;;;;97.32;57.13;;;10.50;99.90;;;;;;4944974;28;20373;-78
2021/11/01 21:51:19;;;;;;;130.35;74.95;;;11.30;99.90;;;;;;4964889;28;20042;-80
2021/11/01 21:53:54;;;;;;;61.42;41.13;;;11.40;99.90;;;;;;4956528;28;20037;-78
2021/11/01 21:56:22;;;;;;;59.67;36.72;;;11.30;99.90;;;;;;4969084;28;20042;-78
2021/11/01 22:18:28;;;;;;;52.70;31.45;;;10.00;99.90;;;;;;4961378;28;20570;-77
2021/11/01 22:21:00;;;;;;;50.57;30.33;;;9.70;99.90;;;;;;4958937;28;20393;-75
2021/11/01 22:23:45;;;;;;;54.90;32.53;;;10.20;99.90;;;;;;4952764;29;20043;-80
2021/11/01 22:34:24;;;;;;;66.70;30.95;;;9.70;99.90;;;;;;4951340;29;20064;-81
2021/11/01 22:42:15;;;;;;;49.35;29.98;;;10.30;99.90;;;;;;4935363;29;20376;-80
2021/11/01 22:58:13;;;;;;;46.20;29.38;;;9.50;99.90;;;;;;4951664;29;20335;-79
2021/11/01 23:00:47;;;;;;;49.72;29.33;;;9.90;99.90;;;;;;4954591;28;20065;-76
2021/11/01 23:03:20;;;;;;;43.72;28.38;;;10.20;99.90;;;;;;4955846;29;20082;-78
2021/11/01 23:33:20;;;;;;;43.47;24.30;;;9.30;99.90;;;;;;4916971;29;20032;-79
2021/11/01 23:35:48;;;;;;;38.53;25.25;;;9.20;99.90;;;;;;4916570;29;20051;-75
2021/11/01 23:38:18;;;;;;;36.60;23.65;;;9.20;99.90;;;;;;4917361;29;20446;-78
2021/11/01 23:40:46;;;;;;;39.65;24.17;;;9.30;99.90;;;;;;4931968;29;20050;-76
2021/11/01 23:43:13;;;;;;;35.25;23.00;;;9.30;99.90;;;;;;4916407;29;20052;-78
2021/11/01 23:45:42;;;;;;;36.15;24.00;;;9.20;99.90;;;;;;4931951;29;20396;-79
2021/11/01 23:48:11;;;;;;;39.28;24.55;;;9.30;99.90;;;;;;4917477;29;20367;-78
2021/11/01 23:50:40;;;;;;;37.33;24.83;;;9.70;99.90;;;;;;4916431;29;20040;-79
2021/11/01 23:53:43;;;;;;;37.78;23.63;;;10.20;99.90;;;;;;4929452;29;20064;-79
2021/11/01 23:56:11;;;;;;;34.47;24.15;;;10.50;99.90;;;;;;4934289;29;20045;-79
2021/11/01 23:58:41;;;;;;;37.22;23.27;;;10.40;99.90;;;;;;4950118;29;20035;-77
